sensor_id;sensor_type;location;lat;lon;timestamp;temperature;humidity
44271;DHT22;29963;44.594;11.368;2023-08-31T00:01:09;21.00;99.90
44271;DHT22;29963;44.594;11.368;2023-08-31T00:03:35;21.00;99.90
44271;DHT22;29963;44.594;11.368;2023-08-31T00:06:04;20.90;99.90
44271;DHT22;29963;44.594;11.368;2023-08-31T00:08:30;20.90;99.90
44271;DHT22;29963;44.594;11.368;2023-08-31T00:11:00;20.90;99.90
44271;DHT22;29963;44.594;11.368;2023-08-31T00:13:26;20.90;99.90
44271;DHT22;29963;44.594;11.368;2023-08-31T00:15:55;20.80;99.90
44271;DHT22;29963;44.594;11.368;2023-08-31T00:18:22;20.90;99.90
44271;DHT22;29963;44.594;11.368;2023-08-31T00:20:47;20.80;99.90
44271;DHT22;29963;44.594;11.368;2023-08-31T00:23:13;20.70;99.90
44271;DHT22;29963;44.594;11.368;2023-08-31T00:25:38;20.60;99.90
44271;DHT22;29963;44.594;11.368;2023-08-31T00:28:04;20.60;99.90
44271;DHT22;29963;44.594;11.368;2023-08-31T00:30:31;20.30;99.90
44271;DHT22;29963;44.594;11.368;2023-08-31T00:32:58;20.50;99.90
44271;DHT22;29963;44.594;11.368;2023-08-31T00:35:26;20.50;99.90
44271;DHT22;29963;44.594;11.368;2023-08-31T00:37:53;20.50;99.90
44271;DHT22;29963;44.594;11.368;2023-08-31T00:40:23;20.50;99.90
44271;DHT22;29963;44.594;11.368;2023-08-31T00:42:49;20.60;99.90
44271;DHT22;29963;44.594;11.368;2023-08-31T00:45:15;20.70;99.90
44271;DHT22;29963;44.594;11.368;2023-08-31T00:47:41;20.70;99.90
44271;DHT22;29963;44.594;11.368;2023-08-31T00:50:07;20.70;99.90
44271;DHT22;29963;44.594;11.368;2023-08-31T00:52:34;20.80;99.90
44271;DHT22;29963;44.594;11.368;2023-08-31T00:55:00;20.90;99.90
44271;DHT22;29963;44.594;11.368;2023-08-31T00:57:28;21.00;99.90
44271;DHT22;29963;44.594;11.368;2023-08-31T00:59:53;21.00;99.90
44271;DHT22;29963;44.594;11.368;2023-08-31T01:05:08;21.00;99.90
44271;DHT22;29963;44.594;11.368;2023-08-31T01:07:59;21.00;99.90
44271;DHT22;29963;44.594;11.368;2023-08-31T01:12:54;21.20;99.90
44271;DHT22;29963;44.594;11.368;2023-08-31T01:15:22;21.20;99.90
44271;DHT22;29963;44.594;11.368;2023-08-31T01:17:54;21.20;99.90
44271;DHT22;29963;44.594;11.368;2023-08-31T01:20:28;21.20;99.90
44271;DHT22;29963;44.594;11.368;2023-08-31T01:23:02;21.30;99.90
44271;DHT22;29963;44.594;11.368;2023-08-31T01:25:32;21.30;99.90
44271;DHT22;29963;44.594;11.368;2023-08-31T01:28:01;21.30;99.90
44271;DHT22;29963;44.594;11.368;2023-08-31T01:30:30;21.40;99.90
44271;DHT22;29963;44.594;11.368;2023-08-31T01:32:56;21.30;99.90
44271;DHT22;29963;44.594;11.368;2023-08-31T01:35:22;21.30;99.90
44271;DHT22;29963;44.594;11.368;2023-08-31T01:37:56;21.30;99.90
44271;DHT22;29963;44.594;11.368;2023-08-31T01:40:45;21.30;99.90
44271;DHT22;29963;44.594;11.368;2023-08-31T01:43:15;21.30;99.90
44271;DHT22;29963;44.594;11.368;2023-08-31T01:45:43;21.30;99.90
44271;DHT22;29963;44.594;11.368;2023-08-31T01:48:09;21.20;99.90
44271;DHT22;29963;44.594;11.368;2023-08-31T01:50:35;21.20;99.90
44271;DHT22;29963;44.594;11.368;2023-08-31T01:53:00;21.20;99.90
44271;DHT22;29963;44.594;11.368;2023-08-31T01:55:26;21.10;99.90
44271;DHT22;29963;44.594;11.368;2023-08-31T01:57:52;21.10;99.90
44271;DHT22;29963;44.594;11.368;2023-08-31T02:00:19;21.10;99.90
44271;DHT22;29963;44.594;11.368;2023-08-31T02:02:44;21.10;99.90
44271;DHT22;29963;44.594;11.368;2023-08-31T02:05:10;21.20;99.90
44271;DHT22;29963;44.594;11.368;2023-08-31T02:07:36;21.20;99.90
44271;DHT22;29963;44.594;11.368;2023-08-31T02:10:03;21.20;99.90
44271;DHT22;29963;44.594;11.368;2023-08-31T02:12:31;21.20;99.90
44271;DHT22;29963;44.594;11.368;2023-08-31T02:14:57;21.10;99.90
44271;DHT22;29963;44.594;11.368;2023-08-31T02:17:23;21.10;99.90
44271;DHT22;29963;44.594;11.368;2023-08-31T02:19:48;21.00;99.90
44271;DHT22;29963;44.594;11.368;2023-08-31T02:22:14;21.00;99.90
44271;DHT22;29963;44.594;11.368;2023-08-31T02:24:39;21.00;99.90
44271;DHT22;29963;44.594;11.368;2023-08-31T02:27:05;20.90;99.90
44271;DHT22;29963;44.594;11.368;2023-08-31T02:29:30;20.90;99.90
44271;DHT22;29963;44.594;11.368;2023-08-31T02:31:56;20.90;99.90
44271;DHT22;29963;44.594;11.368;2023-08-31T02:34:22;20.90;99.90
44271;DHT22;29963;44.594;11.368;2023-08-31T02:36:47;20.90;99.90
44271;DHT22;29963;44.594;11.368;2023-08-31T02:39:13;20.90;99.90
44271;DHT22;29963;44.594;11.368;2023-08-31T02:41:38;21.00;99.90
44271;DHT22;29963;44.594;11.368;2023-08-31T02:44:05;21.00;99.90
44271;DHT22;29963;44.594;11.368;2023-08-31T02:46:31;21.00;99.90
44271;DHT22;29963;44.594;11.368;2023-08-31T02:48:56;21.00;99.90
44271;DHT22;29963;44.594;11.368;2023-08-31T02:51:22;21.00;99.90
44271;DHT22;29963;44.594;11.368;2023-08-31T02:53:47;20.80;99.90
44271;DHT22;29963;44.594;11.368;2023-08-31T02:56:14;20.70;99.90
44271;DHT22;29963;44.594;11.368;2023-08-31T02:58:39;20.50;99.90
44271;DHT22;29963;44.594;11.368;2023-08-31T03:01:09;20.40;99.90
44271;DHT22;29963;44.594;11.368;2023-08-31T03:03:39;20.30;99.90
44271;DHT22;29963;44.594;11.368;2023-08-31T03:06:08;20.20;99.90
44271;DHT22;29963;44.594;11.368;2023-08-31T03:08:35;20.10;99.90
44271;DHT22;29963;44.594;11.368;2023-08-31T03:11:03;20.00;99.90
44271;DHT22;29963;44.594;11.368;2023-08-31T03:13:29;19.90;99.90
44271;DHT22;29963;44.594;11.368;2023-08-31T03:15:54;19.90;99.90
44271;DHT22;29963;44.594;11.368;2023-08-31T03:18:22;19.80;99.90
44271;DHT22;29963;44.594;11.368;2023-08-31T03:20:47;19.70;99.90
44271;DHT22;29963;44.594;11.368;2023-08-31T03:23:13;19.60;99.90
44271;DHT22;29963;44.594;11.368;2023-08-31T03:25:39;19.60;99.90
44271;DHT22;29963;44.594;11.368;2023-08-31T03:28:04;19.50;99.90
44271;DHT22;29963;44.594;11.368;2023-08-31T03:30:30;19.50;99.90
44271;DHT22;29963;44.594;11.368;2023-08-31T03:32:55;19.50;99.90
44271;DHT22;29963;44.594;11.368;2023-08-31T03:35:21;19.50;99.90
44271;DHT22;29963;44.594;11.368;2023-08-31T03:37:52;19.50;99.90
44271;DHT22;29963;44.594;11.368;2023-08-31T03:40:17;19.50;99.90
44271;DHT22;29963;44.594;11.368;2023-08-31T03:42:43;19.40;99.90
44271;DHT22;29963;44.594;11.368;2023-08-31T03:45:09;19.50;99.90
44271;DHT22;29963;44.594;11.368;2023-08-31T03:47:34;19.40;99.90
44271;DHT22;29963;44.594;11.368;2023-08-31T03:50:00;19.50;99.90
44271;DHT22;29963;44.594;11.368;2023-08-31T03:52:25;19.40;99.90
44271;DHT22;29963;44.594;11.368;2023-08-31T03:54:51;19.40;99.90
44271;DHT22;29963;44.594;11.368;2023-08-31T03:57:18;19.40;99.90
44271;DHT22;29963;44.594;11.368;2023-08-31T03:59:43;19.30;99.90
44271;DHT22;29963;44.594;11.368;2023-08-31T04:02:09;19.40;99.90
44271;DHT22;29963;44.594;11.368;2023-08-31T04:04:34;19.30;99.90
44271;DHT22;29963;44.594;11.368;2023-08-31T04:07:00;19.30;99.90
44271;DHT22;29963;44.594;11.368;2023-08-31T04:09:26;19.20;99.90
44271;DHT22;29963;44.594;11.368;2023-08-31T04:11:51;19.20;99.90
44271;DHT22;29963;44.594;11.368;2023-08-31T04:14:17;19.10;99.90
44271;DHT22;29963;44.594;11.368;2023-08-31T04:16:44;19.00;99.90
44271;DHT22;29963;44.594;11.368;2023-08-31T04:19:10;18.90;99.90
44271;DHT22;29963;44.594;11.368;2023-08-31T04:21:35;18.90;99.90
44271;DHT22;29963;44.594;11.368;2023-08-31T04:24:02;18.80;99.90
44271;DHT22;29963;44.594;11.368;2023-08-31T04:26:28;18.80;99.90
44271;DHT22;29963;44.594;11.368;2023-08-31T04:28:54;18.80;99.90
44271;DHT22;29963;44.594;11.368;2023-08-31T04:31:20;18.80;99.90
44271;DHT22;29963;44.594;11.368;2023-08-31T04:33:46;18.90;99.90
44271;DHT22;29963;44.594;11.368;2023-08-31T04:36:12;18.90;99.90
44271;DHT22;29963;44.594;11.368;2023-08-31T04:38:38;18.80;99.90
44271;DHT22;29963;44.594;11.368;2023-08-31T04:41:03;18.70;99.90
44271;DHT22;29963;44.594;11.368;2023-08-31T04:43:29;18.60;99.90
44271;DHT22;29963;44.594;11.368;2023-08-31T04:45:55;18.60;99.90
44271;DHT22;29963;44.594;11.368;2023-08-31T04:48:21;18.60;99.90
44271;DHT22;29963;44.594;11.368;2023-08-31T04:50:47;18.60;99.90
44271;DHT22;29963;44.594;11.368;2023-08-31T04:53:13;18.60;99.90
44271;DHT22;29963;44.594;11.368;2023-08-31T04:55:39;18.70;99.90
44271;DHT22;29963;44.594;11.368;2023-08-31T04:58:04;18.70;99.90
44271;DHT22;29963;44.594;11.368;2023-08-31T05:00:30;18.70;99.90
44271;DHT22;29963;44.594;11.368;2023-08-31T05:02:56;18.60;99.90
44271;DHT22;29963;44.594;11.368;2023-08-31T05:05:22;18.60;99.90
44271;DHT22;29963;44.594;11.368;2023-08-31T05:07:47;18.60;99.90
44271;DHT22;29963;44.594;11.368;2023-08-31T05:10:13;18.50;99.90
44271;DHT22;29963;44.594;11.368;2023-08-31T05:12:39;18.40;99.90
44271;DHT22;29963;44.594;11.368;2023-08-31T05:15:05;18.40;99.90
44271;DHT22;29963;44.594;11.368;2023-08-31T05:17:31;18.50;99.90
44271;DHT22;29963;44.594;11.368;2023-08-31T05:19:57;18.60;99.90
44271;DHT22;29963;44.594;11.368;2023-08-31T05:22:22;18.60;99.90
44271;DHT22;29963;44.594;11.368;2023-08-31T05:24:48;18.60;99.90
44271;DHT22;29963;44.594;11.368;2023-08-31T05:27:14;18.60;99.90
44271;DHT22;29963;44.594;11.368;2023-08-31T05:29:40;18.70;99.90
44271;DHT22;29963;44.594;11.368;2023-08-31T05:32:06;18.70;99.90
44271;DHT22;29963;44.594;11.368;2023-08-31T05:34:31;18.80;99.90
44271;DHT22;29963;44.594;11.368;2023-08-31T05:37:00;18.90;99.90
44271;DHT22;29963;44.594;11.368;2023-08-31T05:39:25;19.00;99.90
44271;DHT22;29963;44.594;11.368;2023-08-31T05:41:51;19.00;99.90
44271;DHT22;29963;44.594;11.368;2023-08-31T05:44:16;19.10;99.90
44271;DHT22;29963;44.594;11.368;2023-08-31T05:46:42;19.20;99.90
44271;DHT22;29963;44.594;11.368;2023-08-31T05:49:08;19.30;99.90
44271;DHT22;29963;44.594;11.368;2023-08-31T05:51:34;19.40;99.90
44271;DHT22;29963;44.594;11.368;2023-08-31T05:54:00;19.50;99.90
44271;DHT22;29963;44.594;11.368;2023-08-31T05:56:25;19.60;99.90
44271;DHT22;29963;44.594;11.368;2023-08-31T05:58:51;19.70;99.90
44271;DHT22;29963;44.594;11.368;2023-08-31T06:01:20;19.70;99.90
44271;DHT22;29963;44.594;11.368;2023-08-31T06:03:46;19.80;99.90
44271;DHT22;29963;44.594;11.368;2023-08-31T06:06:11;19.90;99.90
44271;DHT22;29963;44.594;11.368;2023-08-31T06:08:37;19.90;99.90
44271;DHT22;29963;44.594;11.368;2023-08-31T06:11:03;19.90;99.90
44271;DHT22;29963;44.594;11.368;2023-08-31T06:13:29;19.90;99.90
44271;DHT22;29963;44.594;11.368;2023-08-31T06:15:54;19.90;99.90
44271;DHT22;29963;44.594;11.368;2023-08-31T06:18:25;19.90;99.90
44271;DHT22;29963;44.594;11.368;2023-08-31T06:20:50;19.90;99.90
44271;DHT22;29963;44.594;11.368;2023-08-31T06:23:16;19.90;99.90
44271;DHT22;29963;44.594;11.368;2023-08-31T06:25:42;19.90;99.90
44271;DHT22;29963;44.594;11.368;2023-08-31T06:28:07;20.00;99.90
44271;DHT22;29963;44.594;11.368;2023-08-31T06:30:36;20.00;99.90
44271;DHT22;29963;44.594;11.368;2023-08-31T06:33:02;20.00;99.90
44271;DHT22;29963;44.594;11.368;2023-08-31T06:35:28;20.10;99.90
44271;DHT22;29963;44.594;11.368;2023-08-31T06:37:53;20.20;99.90
44271;DHT22;29963;44.594;11.368;2023-08-31T06:40:21;20.20;99.90
44271;DHT22;29963;44.594;11.368;2023-08-31T06:42:47;20.30;99.90
44271;DHT22;29963;44.594;11.368;2023-08-31T06:45:12;20.40;99.90
44271;DHT22;29963;44.594;11.368;2023-08-31T06:47:38;20.40;99.90
44271;DHT22;29963;44.594;11.368;2023-08-31T06:50:04;20.50;99.90
44271;DHT22;29963;44.594;11.368;2023-08-31T06:52:30;20.50;99.90
44271;DHT22;29963;44.594;11.368;2023-08-31T06:54:56;20.60;99.90
44271;DHT22;29963;44.594;11.368;2023-08-31T06:57:26;20.70;99.90
44271;DHT22;29963;44.594;11.368;2023-08-31T06:59:52;20.70;99.90
44271;DHT22;29963;44.594;11.368;2023-08-31T07:02:17;20.70;99.90
44271;DHT22;29963;44.594;11.368;2023-08-31T07:04:44;20.90;99.90
44271;DHT22;29963;44.594;11.368;2023-08-31T07:07:10;21.00;99.90
44271;DHT22;29963;44.594;11.368;2023-08-31T07:09:36;21.10;99.90
44271;DHT22;29963;44.594;11.368;2023-08-31T07:12:02;21.20;99.90
44271;DHT22;29963;44.594;11.368;2023-08-31T07:14:27;21.20;99.90
44271;DHT22;29963;44.594;11.368;2023-08-31T07:16:53;21.20;99.90
44271;DHT22;29963;44.594;11.368;2023-08-31T07:19:19;21.00;99.90
44271;DHT22;29963;44.594;11.368;2023-08-31T07:21:44;21.10;99.90
44271;DHT22;29963;44.594;11.368;2023-08-31T07:24:10;21.00;99.90
44271;DHT22;29963;44.594;11.368;2023-08-31T07:26:36;21.00;99.90
44271;DHT22;29963;44.594;11.368;2023-08-31T07:29:02;21.00;99.90
44271;DHT22;29963;44.594;11.368;2023-08-31T07:31:31;21.00;99.90
44271;DHT22;29963;44.594;11.368;2023-08-31T07:33:57;21.00;99.90
44271;DHT22;29963;44.594;11.368;2023-08-31T07:36:24;20.90;99.90
44271;DHT22;29963;44.594;11.368;2023-08-31T07:38:50;20.90;99.90
44271;DHT22;29963;44.594;11.368;2023-08-31T07:41:15;21.00;99.90
44271;DHT22;29963;44.594;11.368;2023-08-31T07:43:41;21.00;99.90
44271;DHT22;29963;44.594;11.368;2023-08-31T07:46:06;20.90;99.90
44271;DHT22;29963;44.594;11.368;2023-08-31T07:48:32;20.90;99.90
44271;DHT22;29963;44.594;11.368;2023-08-31T07:50:57;21.10;99.90
44271;DHT22;29963;44.594;11.368;2023-08-31T07:53:23;21.20;99.90
44271;DHT22;29963;44.594;11.368;2023-08-31T07:55:55;21.30;99.90
44271;DHT22;29963;44.594;11.368;2023-08-31T07:58:24;21.30;99.90
44271;DHT22;29963;44.594;11.368;2023-08-31T08:00:57;21.30;99.90
44271;DHT22;29963;44.594;11.368;2023-08-31T08:03:23;21.30;99.90
44271;DHT22;29963;44.594;11.368;2023-08-31T08:05:49;21.00;99.90
44271;DHT22;29963;44.594;11.368;2023-08-31T08:08:15;21.40;99.90
44271;DHT22;29963;44.594;11.368;2023-08-31T08:10:40;21.50;99.90
44271;DHT22;29963;44.594;11.368;2023-08-31T08:13:06;21.50;99.90
44271;DHT22;29963;44.594;11.368;2023-08-31T08:15:32;21.50;99.90
44271;DHT22;29963;44.594;11.368;2023-08-31T08:17:58;21.60;99.90
44271;DHT22;29963;44.594;11.368;2023-08-31T08:20:24;21.60;99.90
44271;DHT22;29963;44.594;11.368;2023-08-31T08:22:50;21.70;99.90
44271;DHT22;29963;44.594;11.368;2023-08-31T08:25:19;21.70;99.90
44271;DHT22;29963;44.594;11.368;2023-08-31T08:27:46;21.80;99.90
44271;DHT22;29963;44.594;11.368;2023-08-31T08:30:12;21.70;99.90
44271;DHT22;29963;44.594;11.368;2023-08-31T08:32:37;21.90;99.90
44271;DHT22;29963;44.594;11.368;2023-08-31T08:35:03;22.00;99.90
44271;DHT22;29963;44.594;11.368;2023-08-31T08:37:29;21.90;99.90
44271;DHT22;29963;44.594;11.368;2023-08-31T08:39:57;21.90;99.90
44271;DHT22;29963;44.594;11.368;2023-08-31T08:42:24;22.00;99.90
44271;DHT22;29963;44.594;11.368;2023-08-31T08:44:50;22.10;99.90
44271;DHT22;29963;44.594;11.368;2023-08-31T08:47:17;22.20;99.90
44271;DHT22;29963;44.594;11.368;2023-08-31T08:49:43;22.30;99.90
44271;DHT22;29963;44.594;11.368;2023-08-31T08:52:09;22.30;99.90
44271;DHT22;29963;44.594;11.368;2023-08-31T08:54:35;22.30;99.90
44271;DHT22;29963;44.594;11.368;2023-08-31T08:57:01;22.40;99.90
44271;DHT22;29963;44.594;11.368;2023-08-31T08:59:26;22.40;99.90
44271;DHT22;29963;44.594;11.368;2023-08-31T09:01:52;22.50;99.90
44271;DHT22;29963;44.594;11.368;2023-08-31T09:04:19;22.50;99.90
44271;DHT22;29963;44.594;11.368;2023-08-31T09:06:45;22.60;99.90
44271;DHT22;29963;44.594;11.368;2023-08-31T09:09:11;22.70;99.90
44271;DHT22;29963;44.594;11.368;2023-08-31T09:11:36;22.70;99.90
44271;DHT22;29963;44.594;11.368;2023-08-31T09:14:20;22.80;99.90
44271;DHT22;29963;44.594;11.368;2023-08-31T09:16:47;22.80;99.90
44271;DHT22;29963;44.594;11.368;2023-08-31T09:19:21;22.90;99.90
44271;DHT22;29963;44.594;11.368;2023-08-31T09:21:48;22.90;99.90
44271;DHT22;29963;44.594;11.368;2023-08-31T09:24:14;23.00;99.90
44271;DHT22;29963;44.594;11.368;2023-08-31T09:27:08;23.00;99.90
44271;DHT22;29963;44.594;11.368;2023-08-31T09:29:38;23.10;99.90
44271;DHT22;29963;44.594;11.368;2023-08-31T09:32:04;23.20;99.90
44271;DHT22;29963;44.594;11.368;2023-08-31T09:34:33;23.40;99.90
44271;DHT22;29963;44.594;11.368;2023-08-31T09:37:05;23.50;99.90
44271;DHT22;29963;44.594;11.368;2023-08-31T09:39:36;23.50;99.90
44271;DHT22;29963;44.594;11.368;2023-08-31T09:42:03;23.60;99.90
44271;DHT22;29963;44.594;11.368;2023-08-31T09:44:28;23.60;99.90
44271;DHT22;29963;44.594;11.368;2023-08-31T09:46:54;23.60;99.90
44271;DHT22;29963;44.594;11.368;2023-08-31T09:49:21;23.70;99.90
44271;DHT22;29963;44.594;11.368;2023-08-31T09:51:48;23.70;99.90
44271;DHT22;29963;44.594;11.368;2023-08-31T09:54:16;23.80;99.90
44271;DHT22;29963;44.594;11.368;2023-08-31T09:56:43;23.90;99.90
44271;DHT22;29963;44.594;11.368;2023-08-31T09:59:10;23.90;99.90
44271;DHT22;29963;44.594;11.368;2023-08-31T10:01:37;24.00;99.90
44271;DHT22;29963;44.594;11.368;2023-08-31T10:04:03;24.00;99.90
44271;DHT22;29963;44.594;11.368;2023-08-31T10:06:31;24.00;99.90
44271;DHT22;29963;44.594;11.368;2023-08-31T10:08:57;24.10;99.90
44271;DHT22;29963;44.594;11.368;2023-08-31T10:11:25;24.20;99.90
44271;DHT22;29963;44.594;11.368;2023-08-31T10:13:51;24.20;99.90
44271;DHT22;29963;44.594;11.368;2023-08-31T10:16:20;24.20;99.90
44271;DHT22;29963;44.594;11.368;2023-08-31T10:18:45;24.20;99.90
44271;DHT22;29963;44.594;11.368;2023-08-31T10:21:12;24.20;99.90
44271;DHT22;29963;44.594;11.368;2023-08-31T10:23:48;24.30;99.90
44271;DHT22;29963;44.594;11.368;2023-08-31T10:26:24;24.30;99.90
44271;DHT22;29963;44.594;11.368;2023-08-31T10:28:51;24.30;99.90
44271;DHT22;29963;44.594;11.368;2023-08-31T10:31:18;24.30;99.90
44271;DHT22;29963;44.594;11.368;2023-08-31T10:36:41;24.40;99.90
44271;DHT22;29963;44.594;11.368;2023-08-31T10:39:17;24.50;99.90
44271;DHT22;29963;44.594;11.368;2023-08-31T10:41:55;24.50;99.90
44271;DHT22;29963;44.594;11.368;2023-08-31T10:44:25;24.50;99.90
44271;DHT22;29963;44.594;11.368;2023-08-31T10:46:53;24.50;99.90
44271;DHT22;29963;44.594;11.368;2023-08-31T10:49:20;24.60;99.90
44271;DHT22;29963;44.594;11.368;2023-08-31T10:52:15;24.70;99.90
44271;DHT22;29963;44.594;11.368;2023-08-31T10:54:42;24.80;99.90
44271;DHT22;29963;44.594;11.368;2023-08-31T10:57:07;24.90;99.90
44271;DHT22;29963;44.594;11.368;2023-08-31T10:59:44;25.00;99.90
44271;DHT22;29963;44.594;11.368;2023-08-31T11:02:26;25.10;99.90
44271;DHT22;29963;44.594;11.368;2023-08-31T11:04:59;25.20;99.90
44271;DHT22;29963;44.594;11.368;2023-08-31T11:07:26;25.20;99.90
44271;DHT22;29963;44.594;11.368;2023-08-31T11:09:54;25.30;99.90
44271;DHT22;29963;44.594;11.368;2023-08-31T11:12:32;25.40;99.90
44271;DHT22;29963;44.594;11.368;2023-08-31T11:14:57;25.40;99.90
44271;DHT22;29963;44.594;11.368;2023-08-31T11:17:24;25.50;99.90
44271;DHT22;29963;44.594;11.368;2023-08-31T11:19:49;25.60;99.90
44271;DHT22;29963;44.594;11.368;2023-08-31T11:22:15;25.60;99.90
44271;DHT22;29963;44.594;11.368;2023-08-31T11:24:41;25.80;99.90
44271;DHT22;29963;44.594;11.368;2023-08-31T11:27:09;25.70;99.90
44271;DHT22;29963;44.594;11.368;2023-08-31T11:29:42;25.80;99.90
44271;DHT22;29963;44.594;11.368;2023-08-31T11:32:08;25.90;99.90
44271;DHT22;29963;44.594;11.368;2023-08-31T11:34:33;26.00;99.90
44271;DHT22;29963;44.594;11.368;2023-08-31T11:37:00;26.00;99.90
44271;DHT22;29963;44.594;11.368;2023-08-31T11:39:25;26.10;99.90
44271;DHT22;29963;44.594;11.368;2023-08-31T11:41:51;26.00;99.90
44271;DHT22;29963;44.594;11.368;2023-08-31T11:44:17;26.00;99.90
44271;DHT22;29963;44.594;11.368;2023-08-31T11:46:45;26.10;99.90
44271;DHT22;29963;44.594;11.368;2023-08-31T11:49:17;26.10;99.90
44271;DHT22;29963;44.594;11.368;2023-08-31T11:51:43;26.00;99.90
44271;DHT22;29963;44.594;11.368;2023-08-31T11:54:10;26.00;99.90
44271;DHT22;29963;44.594;11.368;2023-08-31T11:56:40;26.10;99.90
44271;DHT22;29963;44.594;11.368;2023-08-31T11:59:11;26.10;99.90
44271;DHT22;29963;44.594;11.368;2023-08-31T12:01:40;26.20;99.90
44271;DHT22;29963;44.594;11.368;2023-08-31T12:04:14;26.20;99.90
44271;DHT22;29963;44.594;11.368;2023-08-31T12:06:40;26.10;99.90
44271;DHT22;29963;44.594;11.368;2023-08-31T12:09:08;26.10;99.90
44271;DHT22;29963;44.594;11.368;2023-08-31T12:11:34;26.10;99.90
44271;DHT22;29963;44.594;11.368;2023-08-31T12:14:04;26.10;99.90
44271;DHT22;29963;44.594;11.368;2023-08-31T12:16:43;26.10;99.90
44271;DHT22;29963;44.594;11.368;2023-08-31T12:19:09;26.20;99.90
44271;DHT22;29963;44.594;11.368;2023-08-31T12:21:35;26.30;99.90
44271;DHT22;29963;44.594;11.368;2023-08-31T12:24:01;26.40;99.90
44271;DHT22;29963;44.594;11.368;2023-08-31T12:28:54;26.50;99.90
44271;DHT22;29963;44.594;11.368;2023-08-31T12:31:22;26.60;99.40
44271;DHT22;29963;44.594;11.368;2023-08-31T12:33:47;26.70;99.60
44271;DHT22;29963;44.594;11.368;2023-08-31T12:36:13;26.70;99.30
44271;DHT22;29963;44.594;11.368;2023-08-31T12:38:39;26.80;98.70
44271;DHT22;29963;44.594;11.368;2023-08-31T12:41:05;26.80;98.60
44271;DHT22;29963;44.594;11.368;2023-08-31T12:43:30;26.80;98.60
44271;DHT22;29963;44.594;11.368;2023-08-31T12:45:57;26.80;98.90
44271;DHT22;29963;44.594;11.368;2023-08-31T12:48:23;26.80;98.70
44271;DHT22;29963;44.594;11.368;2023-08-31T12:50:49;26.80;96.90
44271;DHT22;29963;44.594;11.368;2023-08-31T12:53:15;26.80;97.00
44271;DHT22;29963;44.594;11.368;2023-08-31T12:55:40;26.80;97.50
44271;DHT22;29963;44.594;11.368;2023-08-31T12:58:06;26.90;96.30
44271;DHT22;29963;44.594;11.368;2023-08-31T13:00:32;26.90;96.20
44271;DHT22;29963;44.594;11.368;2023-08-31T13:02:57;26.90;96.40
44271;DHT22;29963;44.594;11.368;2023-08-31T13:05:23;27.10;97.00
44271;DHT22;29963;44.594;11.368;2023-08-31T13:07:48;27.20;96.60
44271;DHT22;29963;44.594;11.368;2023-08-31T13:10:14;27.30;96.40
44271;DHT22;29963;44.594;11.368;2023-08-31T13:12:40;27.30;96.30
44271;DHT22;29963;44.594;11.368;2023-08-31T13:15:06;27.40;96.10
44271;DHT22;29963;44.594;11.368;2023-08-31T13:17:33;27.60;95.90
44271;DHT22;29963;44.594;11.368;2023-08-31T13:19:59;27.70;95.20
44271;DHT22;29963;44.594;11.368;2023-08-31T13:22:25;27.70;93.80
44271;DHT22;29963;44.594;11.368;2023-08-31T13:24:51;27.80;94.40
44271;DHT22;29963;44.594;11.368;2023-08-31T13:27:17;27.90;94.90
44271;DHT22;29963;44.594;11.368;2023-08-31T13:29:43;28.00;94.80
44271;DHT22;29963;44.594;11.368;2023-08-31T13:32:09;28.00;95.20
44271;DHT22;29963;44.594;11.368;2023-08-31T13:34:36;28.10;94.70
44271;DHT22;29963;44.594;11.368;2023-08-31T13:37:05;28.10;95.10
44271;DHT22;29963;44.594;11.368;2023-08-31T13:39:34;28.20;94.50
44271;DHT22;29963;44.594;11.368;2023-08-31T13:42:01;28.30;94.50
44271;DHT22;29963;44.594;11.368;2023-08-31T13:44:29;28.40;94.60
44271;DHT22;29963;44.594;11.368;2023-08-31T13:46:54;28.60;94.90
44271;DHT22;29963;44.594;11.368;2023-08-31T13:49:20;28.80;94.60
44271;DHT22;29963;44.594;11.368;2023-08-31T13:51:46;29.00;94.70
44271;DHT22;29963;44.594;11.368;2023-08-31T13:54:11;29.20;94.10
44271;DHT22;29963;44.594;11.368;2023-08-31T13:56:37;29.40;94.20
44271;DHT22;29963;44.594;11.368;2023-08-31T13:59:02;29.60;93.80
44271;DHT22;29963;44.594;11.368;2023-08-31T14:01:28;29.80;92.80
44271;DHT22;29963;44.594;11.368;2023-08-31T14:03:54;30.00;93.70
44271;DHT22;29963;44.594;11.368;2023-08-31T14:06:19;30.20;92.90
44271;DHT22;29963;44.594;11.368;2023-08-31T14:08:45;30.40;93.30
44271;DHT22;29963;44.594;11.368;2023-08-31T14:11:11;30.60;92.90
44271;DHT22;29963;44.594;11.368;2023-08-31T14:13:36;30.80;92.00
44271;DHT22;29963;44.594;11.368;2023-08-31T14:16:02;30.80;91.70
44271;DHT22;29963;44.594;11.368;2023-08-31T14:18:28;30.90;92.30
44271;DHT22;29963;44.594;11.368;2023-08-31T14:20:55;30.90;91.60
44271;DHT22;29963;44.594;11.368;2023-08-31T14:23:21;30.90;91.50
44271;DHT22;29963;44.594;11.368;2023-08-31T14:25:47;30.70;91.30
44271;DHT22;29963;44.594;11.368;2023-08-31T14:28:12;30.30;91.90
44271;DHT22;29963;44.594;11.368;2023-08-31T14:30:38;30.10;92.10
44271;DHT22;29963;44.594;11.368;2023-08-31T14:33:04;29.80;92.20
44271;DHT22;29963;44.594;11.368;2023-08-31T14:35:30;29.50;91.70
44271;DHT22;29963;44.594;11.368;2023-08-31T14:37:57;29.30;92.70
44271;DHT22;29963;44.594;11.368;2023-08-31T14:40:23;29.20;92.00
44271;DHT22;29963;44.594;11.368;2023-08-31T14:42:49;29.00;92.30
44271;DHT22;29963;44.594;11.368;2023-08-31T14:45:14;29.00;93.00
44271;DHT22;29963;44.594;11.368;2023-08-31T14:47:40;28.80;92.70
44271;DHT22;29963;44.594;11.368;2023-08-31T14:50:07;28.70;92.50
44271;DHT22;29963;44.594;11.368;2023-08-31T14:52:32;28.60;92.90
44271;DHT22;29963;44.594;11.368;2023-08-31T14:54:59;28.50;92.70
44271;DHT22;29963;44.594;11.368;2023-08-31T14:57:25;28.50;93.50
44271;DHT22;29963;44.594;11.368;2023-08-31T14:59:51;28.50;92.90
44271;DHT22;29963;44.594;11.368;2023-08-31T15:02:19;28.50;93.60
44271;DHT22;29963;44.594;11.368;2023-08-31T15:04:50;28.60;93.60
44271;DHT22;29963;44.594;11.368;2023-08-31T15:07:18;28.80;94.30
44271;DHT22;29963;44.594;11.368;2023-08-31T15:09:44;28.90;93.80
44271;DHT22;29963;44.594;11.368;2023-08-31T15:12:11;28.90;93.80
44271;DHT22;29963;44.594;11.368;2023-08-31T15:14:37;28.90;94.60
44271;DHT22;29963;44.594;11.368;2023-08-31T15:17:06;28.90;94.30
44271;DHT22;29963;44.594;11.368;2023-08-31T15:19:32;28.90;94.60
44271;DHT22;29963;44.594;11.368;2023-08-31T15:22:01;29.00;95.00
44271;DHT22;29963;44.594;11.368;2023-08-31T15:24:29;29.20;95.10